Terminal Aerodrome Forecast
Issued by NWS

Home | Current Version | Previous Version | Text Only | Print | Product List | Glossary On
Versions: 1 2 3 4 5 6 7 8 9 10 11 12 13 14 15 16 17 18 19 20 21 22 23 24 25 26 27 28 29 30 31 32 33 34 35 36 37 38 39 40 41 42 43 44 45 46 47 48 49 50
000
FTUS45 KBOU 220453 AAC
TAFAPA
TAF AMD
KAPA 220453Z 2205/2224 13014KT P6SM VCSH SCT025 BKN035 BKN050
      TEMPO 2206/2208 5SM -SHRA BR BKN015
     FM220800 12010KT 5SM -SHRA BR SCT012 OVC025
      TEMPO 2208/2211 3SM -RA BR BKN012
     FM221100 13010KT 3SM -RA BKN009 OVC020
     FM221800 VRB05KT P6SM VCSH SCT020 BKN040 BKN080
     FM222200 08008KT P6SM SCT015 BKN030 OVC050
      TEMPO 2222/2224 4SM -SHRA BKN015=

USA.gov is the U.S. government's official web portal to all federal, state and local government web resources and services.